Latest Weather Observations for Moorabbin Airport

IDV60901

Issued at 6:51 pm EDT Wednesday 22 January 2020 (issued every 10 minutes, with the page automatically refreshed every 10 minutes)

About weather observations | Map of Melbourne area stations | Latest observations for Melbourne area | Other Formats
Station Details ID: 086077 Name: MOORABBIN AIRPORT Lat: -37.98 Lon: 145.10 Height: 12.1 m
Data from the previous 72 hours. | See also: Recent months at Moorabbin Airport
Date/Time
EDT
Temp
°C
App
Temp
°C
Dew
Point
°C
Rel
Hum
%
Delta-T
°C
Wind Press
QNH
hPa
Press
MSL
hPa
Rain since
9am
mm
Dir  Spd
km/h
Gust
km/h
Spd
kts
Gust
kts
22/06:30pm 30.8 22.4 9.1 26 12.1 N 43 65 23 35 995.5 995.5 0.0
22/06:00pm 31.1 23.4 8.8 25 12.5 NNW 39 67 21 36 995.5 995.5 0.0
22/05:52pm 30.8 24.4 8.5 25 12.4 N 32 54 17 29 995.6 995.6 0.0
22/05:30pm 29.9 23.7 9.4 28 11.5 N 32 43 17 23 995.8 995.8 0.0
22/05:11pm 30.1 23.6 9.1 27 11.7 N 33 52 18 28 996.1 996.1 0.0
22/05:00pm 30.1 22.9 9.1 27 11.8 N 37 50 20 27 996.2 996.2 0.0
22/04:35pm 30.3 22.8 8.1 25 12.2 N 37 56 20 30 996.2 996.2 0.0
22/04:30pm 30.2 22.5 8.6 26 11.9 N 39 52 21 28 996.4 996.4 0.0
22/04:00pm 31.3 23.9 8.3 24 12.8 N 37 57 20 31 996.9 996.9 0.0
22/03:40pm 31.4 25.5 9.0 25 12.5 N 30 48 16 26 997.1 997.1 0.0
22/03:30pm 31.2 24.4 10.5 28 11.9 N 37 50 20 27 997.4 997.4 0.0
22/03:00pm 31.6 23.8 11.9 30 11.6 N 44 65 24 35 997.8 997.8 0.0
22/02:34pm 31.4 21.9 11.2 29 11.7 N 52 70 28 38 998.0 998.0 0.0
22/02:30pm 31.6 22.5 11.4 29 11.8 N 50 70 27 38 997.9 997.9 0.0
22/02:01pm 30.0 23.9 10.5 30 11.1 N 33 63 18 34 998.9 998.9 0.0
22/02:00pm 30.0 24.1 11.0 31 11.0 N 33 48 18 26 998.8 998.8 0.0
22/01:35pm 30.2 23.7 11.7 32 10.8 N 37 57 20 31 999.2 999.2 0.0
22/01:30pm 29.9 22.9 11.4 32 10.7 N 39 56 21 30 999.3 999.3 0.0
22/01:09pm 29.1 21.4 11.6 33 10.1 N 43 61 23 33 999.5 999.5 0.0
22/01:00pm 29.3 22.2 10.9 32 10.6 N 39 56 21 30 999.8 999.8 0.0
22/12:30pm 29.5 23.1 12.0 34 10.2 N 37 56 20 30 1000.1 1000.1 0.0
22/12:28pm 29.6 23.2 12.1 34 10.2 N 37 56 20 30 1000.2 1000.2 0.0
22/12:00pm 29.3 21.2 10.9 32 10.6 N 44 61 24 33 1000.2 1000.2 0.0
22/11:34am 29.1 22.6 12.9 37 9.6 N 39 57 21 31 1000.8 1000.8 0.0
22/11:30am 28.9 21.5 12.3 36 9.7 N 43 57 23 31 1000.7 1000.7 0.0
22/11:16am 28.6 22.5 12.9 38 9.2 N 37 56 20 30 1000.5 1000.5 0.0
22/11:00am 28.1 22.7 14.0 42 8.5 N 35 44 19 24 1000.9 1000.9 0.0
22/10:30am 26.1 18.9 13.2 44 7.5 N 43 63 23 34 1001.5 1001.5 0.0
22/10:17am 26.0 18.1 12.8 44 7.7 N 46 65 25 35 1001.6 1001.6 0.0
22/10:00am 25.7 18.4 12.9 45 7.5 N 43 57 23 31 1001.7 1001.7 0.0
22/09:48am 25.6 19.9 13.1 46 7.3 N 35 54 19 29 1002.0 1002.0 0.0
22/09:30am 24.2 17.9 12.2 47 6.8 N 37 52 20 28 1001.9 1001.9 0.0
22/09:02am 23.9 17.8 11.6 46 6.9 N 35 54 19 29 1002.1 1002.1 0.0
22/09:00am 23.9 17.8 11.9 47 6.8 N 35 48 19 26 1002.3 1002.3 0.0
22/08:30am 22.8 17.7 11.8 50 6.2 N 30 39 16 21 1002.6 1002.6 0.0
22/08:00am 22.3 17.3 11.1 49 6.2 N 28 41 15 22 1002.8 1002.8 0.0
22/07:30am 20.8 16.1 10.6 52 5.6 N 26 35 14 19 1002.9 1002.9 0.0
22/07:00am 19.5 15.4 10.0 54 5.1 NNE 22 26 12 14 1003.1 1003.1 0.0
22/06:30am 18.3 14.6 9.6 57 4.6 NNE 19 24 10 13 1003.5 1003.5 0.0
22/06:00am 17.6 14.7 9.8 60 4.1 NNE 15 17 8 9 1003.8 1003.8 0.0
22/05:30am 17.2 13.6 9.9 62 3.8 N 19 24 10 13 1003.9 1003.9 0.0
22/05:00am 16.8 14.1 10.4 66 3.4 N 15 19 8 10 1004.0 1004.0 0.0
22/04:30am 15.0 13.8 11.6 80 1.8 N 9 11 5 6 1004.1 1004.1 0.0
22/04:00am 13.0 12.2 10.9 87 1.1 NE 6 6 3 3 1004.4 1004.4 0.0
22/03:30am 13.8 12.9 11.5 86 1.2 NNE 7 7 4 4 1004.9 1004.9 0.0
22/03:00am 13.8 12.9 11.3 85 1.3 NNE 7 9 4 5 1005.1 1005.1 0.0
22/02:30am 13.7 12.9 10.9 83 1.5 NNE 6 7 3 4 1005.5 1005.5 0.0
22/02:00am 13.3 12.1 10.3 82 1.6 NE 7 9 4 5 1005.8 1005.8 0.0
22/01:30am 13.2 12.1 10.0 81 1.6 ESE 6 6 3 3 1006.3 1006.3 0.0
22/01:00am 13.5 12.2 9.9 79 1.9 ESE 7 9 4 5 1006.5 1006.5 0.0
22/12:30am 13.4 12.0 9.6 78 1.9 ESE 7 11 4 6 1006.9 1006.9 0.0
22/12:00am 14.2 13.0 10.2 77 2.1 E 7 11 4 6 1007.1 1007.1 0.0
 
Date/Time
EDT
Temp
°C
App
Temp
°C
Dew
Point
°C
Rel
Hum
%
Delta-T
°C
Wind Press
QNH
hPa
Press
MSL
hPa
Rain since
9am
mm
Dir  Spd
km/h
Gust
km/h
Spd
kts
Gust
kts
21/11:30pm 14.3 12.8 10.5 78 2.0 SE 9 11 5 6 1007.5 1007.5 0.0
21/11:00pm 14.7 12.8 10.5 76 2.2 SE 11 13 6 7 1008.0 1008.0 0.0
21/10:30pm 15.0 13.1 10.6 75 2.3 SE 11 13 6 7 1008.1 1008.1 0.0
21/10:00pm 15.5 13.3 10.7 73 2.5 SE 13 17 7 9 1008.0 1008.0 0.0
21/09:30pm 15.8 12.7 10.3 70 2.9 SE 17 20 9 11 1007.7 1007.7 0.0
21/09:00pm 16.1 12.7 10.4 69 3.0 SE 19 26 10 14 1007.6 1007.6 0.0
21/08:30pm 16.9 13.3 10.5 66 3.4 ESE 20 26 11 14 1007.5 1007.5 0.0
21/08:00pm 18.1 14.5 10.7 62 4.0 SE 20 28 11 15 1007.5 1007.5 0.0
21/07:30pm 19.4 15.1 10.9 58 4.6 SE 24 32 13 17 1007.2 1007.2 0.0
21/07:00pm 19.8 16.5 12.8 64 4.0 SSW 22 32 12 17 1007.1 1007.1 0.0
21/06:30pm 19.6 15.7 12.1 62 4.2 SSW 24 30 13 16 1007.1 1007.1 0.0
21/06:00pm 20.6 17.5 12.1 58 4.8 SSW 20 26 11 14 1007.1 1007.1 0.0
21/05:30pm 20.3 16.7 10.4 53 5.4 SSW 20 24 11 13 1007.2 1007.2 0.0
21/05:00pm 20.3 16.6 10.1 52 5.5 SSW 20 26 11 14 1007.4 1007.4 0.0
21/04:30pm 20.4 17.3 11.6 57 4.9 SSW 19 26 10 14 1007.7 1007.7 0.0
21/04:00pm 19.3 16.2 10.3 56 4.8 SSW 17 24 9 13 1008.1 1008.1 0.0
21/03:30pm 19.8 17.0 11.3 58 4.7 SSW 17 24 9 13 1008.4 1008.4 0.0
21/03:00pm 19.3 15.8 10.3 56 4.8 SSW 19 24 10 13 1008.7 1008.7 0.0
21/02:30pm 19.8 16.8 10.8 56 4.9 SW 17 22 9 12 1009.0 1009.0 0.0
21/02:00pm 18.8 15.2 9.8 56 4.8 SSW 19 28 10 15 1009.4 1009.4 0.0
21/01:30pm 19.2 15.6 9.7 54 5.0 SW 19 26 10 14 1009.7 1009.7 0.0
21/01:00pm 18.6 14.7 8.8 53 5.1 SW 19 30 10 16 1010.1 1010.1 0.0
21/12:30pm 19.1 16.3 10.1 56 4.8 WNW 15 22 8 12 1010.4 1010.4 0.0
21/12:00pm 18.7 15.8 9.8 56 4.7 WSW 15 22 8 12 1010.5 1010.5 0.0
21/11:30am 18.3 15.4 10.9 62 4.0 W 17 26 9 14 1010.7 1010.7 0.0
21/11:00am 17.2 14.4 10.1 63 3.8 W 15 24 8 13 1010.9 1010.9 0.0
21/10:30am 17.2 14.1 10.3 64 3.7 W 17 20 9 11 1011.0 1011.0 0.0
21/10:00am 16.5 13.3 10.1 66 3.4 W 17 24 9 13 1011.0 1011.0 0.0
21/09:30am 16.9 13.7 10.1 64 3.6 WSW 17 20 9 11 1010.7 1010.7 0.0
21/09:00am 16.6 13.2 9.1 61 3.9 W 17 24 9 13 1010.5 1010.5 11.8
21/08:30am 16.2 13.9 10.3 68 3.1 W 13 19 7 10 1010.3 1010.3 11.8
21/08:00am 15.9 13.4 9.8 67 3.2 W 13 19 7 10 1009.9 1009.9 11.8
21/07:30am 15.7 13.0 9.1 65 3.4 WSW 13 20 7 11 1009.5 1009.5 11.8
21/07:00am 15.8 13.2 9.5 66 3.3 WSW 13 20 7 11 1009.1 1009.1 11.8
21/06:30am 15.9 12.5 9.3 65 3.4 SW 17 24 9 13 1008.8 1008.8 11.8
21/06:00am 15.9 12.7 10.0 68 3.1 SW 17 24 9 13 1008.5 1008.5 11.8
21/05:30am 15.8 12.1 10.1 69 3.0 SW 20 30 11 16 1008.2 1008.2 11.8
21/05:00am 15.9 13.0 10.9 72 2.7 SW 17 22 9 12 1008.0 1008.0 11.8
21/04:30am 15.9 12.4 10.9 72 2.7 SW 20 32 11 17 1007.9 1007.9 11.8
21/04:00am 16.0 12.1 10.7 71 2.8 SW 22 33 12 18 1007.6 1007.6 11.8
21/03:30am 15.9 12.2 11.5 75 2.4 SW 22 35 12 19 1007.5 1007.5 11.8
21/03:00am 16.1 11.8 11.9 76 2.3 SW 26 41 14 22 1007.5 1007.5 11.8
21/02:30am 16.1 11.7 11.7 75 2.4 SW 26 35 14 19 1007.7 1007.7 11.8
21/02:00am 16.1 12.2 12.1 77 2.2 SW 24 39 13 21 1007.8 1007.8 11.8
21/01:30am 16.0 11.6 11.8 76 2.3 SW 26 37 14 20 1007.9 1007.9 11.8
21/01:00am 16.1 11.5 12.3 78 2.1 SW 28 39 15 21 1007.9 1007.9 11.8
21/12:30am 16.0 11.7 13.3 84 1.5 SW 28 39 15 21 1008.0 1008.0 11.8
21/12:09am 16.6 12.5 13.7 83 1.6 SW 28 43 15 23 1007.9 1007.9 11.8
21/12:00am 16.5 12.4 13.8 84 1.5 SW 28 44 15 24 1007.8 1007.8 11.8
 
Date/Time
EDT
Temp
°C
App
Temp
°C
Dew
Point
°C
Rel
Hum
%
Delta-T
°C
Wind Press
QNH
hPa
Press
MSL
hPa
Rain since
9am
mm
Dir  Spd
km/h
Gust
km/h
Spd
kts
Gust
kts
20/11:30pm 16.6 13.5 14.4 87 1.3 SW 24 35 13 19 1007.7 1007.7 11.8
20/11:12pm 16.4 12.6 14.6 89 1.0 SW 28 39 15 21 1007.5 1007.5 11.8
20/11:00pm 16.5 13.3 15.2 92 0.8 SW 26 37 14 20 1007.6 1007.6 11.8
20/10:51pm 16.6 13.3 15.1 91 0.9 SSW 26 37 14 20 1007.5 1007.5 11.6
20/10:30pm 16.5 13.3 14.2 86 1.3 SSW 24 33 13 18 1007.5 1007.5 11.6
20/10:00pm 16.1 12.4 15.1 94 0.6 SSW 28 39 15 21 1007.3 1007.3 11.6
20/09:30pm 16.4 13.5 16.1 98 0.2 SSW 26 39 14 21 1006.7 1006.7 11.6
20/09:28pm 16.4 13.9 16.1 98 0.2 SSW 24 39 13 21 1006.7 1006.7 11.6
20/09:00pm 16.4 14.4 16.4 100 0.0 SSW 22 32 12 17 1006.4 1006.4 11.0
20/08:30pm 16.6 14.8 16.1 97 0.3 SSW 20 30 11 16 1006.0 1006.0 9.0
20/08:16pm 16.6 15.4 16.1 97 0.3 SSW 17 26 9 14 1005.8 1005.8 8.8
20/08:00pm 16.6 15.1 16.3 98 0.2 SSW 19 26 10 14 1005.5 1005.5 8.4
20/07:59pm 16.6 15.1 16.3 98 0.2 SSW 19 26 10 14 1005.5 1005.5 8.4
20/07:35pm 16.4 15.3 16.4 100 0.0 S 17 26 9 14 1005.3 1005.3 8.0
20/07:34pm 16.4 15.3 16.4 100 0.0 SSW 17 24 9 13 1005.2 1005.2 7.8
20/07:30pm 16.5 15.5 16.5 100 0.0 SSW 17 24 9 13 1005.2 1005.2 7.8
20/07:00pm 16.5 15.8 16.5 100 0.0 SSW 15 20 8 11 1005.0 1005.0 4.8
20/06:38pm 16.5 15.0 16.3 99 0.1 S 19 28 10 15 1004.7 1004.7 2.8
20/06:30pm 16.7 15.3 16.5 99 0.1 S 19 32 10 17 1004.6 1004.6 2.0
20/06:21pm 16.7 15.1 16.5 99 0.1 SSW 20 32 11 17 1004.5 1004.5 1.8
20/06:00pm 16.7 14.2 16.1 96 0.4 SSW 24 33 13 18 1004.2 1004.2 1.0
20/05:48pm 16.6 13.5 15.6 94 0.6 SSW 26 35 14 19 1004.2 1004.2 0.6
20/05:30pm 17.1 14.4 15.6 91 0.9 SSW 24 35 13 19 1004.1 1004.1 0.0
20/05:00pm 17.9 14.7 15.3 85 1.5 S 26 37 14 20 1003.7 1003.7 0.0
20/04:30pm 18.0 15.1 15.1 83 1.7 S 24 35 13 19 1003.5 1003.5 0.0
20/04:23pm 18.2 14.5 15.1 82 1.8 S 28 37 15 20 1003.5 1003.5 0.0
20/04:00pm 18.5 15.2 15.0 80 2.0 S 26 35 14 19 1003.5 1003.5 0.0
20/03:30pm 19.1 15.6 15.4 79 2.2 S 28 39 15 21 1003.4 1003.4 0.0
20/03:00pm 19.2 15.3 15.5 79 2.2 S 30 39 16 21 1003.2 1003.2 0.0
20/02:30pm 20.0 16.6 15.8 77 2.5 S 28 39 15 21 1003.3 1003.3 0.0
20/02:00pm 20.0 16.8 16.2 79 2.3 S 28 37 15 20 1003.3 1003.3 0.0
20/01:30pm 21.0 17.5 17.4 80 2.2 S 32 43 17 23 1003.2 1003.2 0.0
20/01:00pm 20.5 17.5 16.9 80 2.2 SSW 28 41 15 22 1003.6 1003.6 0.0
20/12:30pm 21.1 18.6 17.1 78 2.4 SSW 26 37 14 20 1003.7 1003.7 0.0
20/12:00pm 21.5 20.3 17.1 76 2.7 SSW 19 24 10 13 1004.0 1004.0 0.0
20/11:30am 22.5 21.7 18.1 76 2.7 SSE 19 24 10 13 1004.2 1004.2 0.0
20/11:00am 21.2 20.4 17.2 78 2.5 SE 17 22 9 12 1004.1 1004.1 0.0
20/10:30am 21.5 20.2 16.9 75 2.8 SSE 19 24 10 13 1004.0 1004.0 0.0
20/10:10am 22.4 21.6 18.0 76 2.7 SSE 19 24 10 13 1003.8 1003.8 0.0
20/10:00am 21.4 20.8 17.6 79 2.4 SSE 17 26 9 14 1004.0 1004.0 0.0
20/09:30am 20.7 19.4 16.7 78 2.4 SE 19 24 10 13 1004.3 1004.3 0.0
20/09:14am 20.5 19.4 17.3 82 2.0 SE 19 26 10 14 1004.2 1004.2 0.0
20/09:00am 20.5 19.6 17.7 84 1.7 SE 19 26 10 14 1004.0 1004.0 3.0
20/08:40am 19.8 18.7 17.4 86 1.5 SE 19 26 10 14 1004.0 1004.0 3.0
20/08:30am 19.8 19.1 17.4 86 1.5 SSE 17 22 9 12 1004.1 1004.1 3.0
20/08:00am 19.5 19.5 17.3 87 1.3 SSE 13 17 7 9 1004.2 1004.2 3.0
20/07:30am 19.2 19.2 17.3 89 1.2 SSE 13 17 7 9 1004.3 1004.3 3.0
20/07:03am 19.0 19.0 17.3 90 1.0 SSE 13 19 7 10 1004.0 1004.0 3.0
20/07:00am 19.0 19.0 17.3 90 1.0 SSE 13 19 7 10 1003.9 1003.9 3.0
20/06:30am 19.0 18.7 17.3 90 1.0 SSE 15 20 8 11 1003.9 1003.9 3.0
20/06:07am 19.0 19.0 17.3 90 1.0 SSE 13 17 7 9 1003.9 1003.9 3.0
20/06:00am 19.0 18.7 17.3 90 1.0 SSE 15 19 8 10 1003.9 1003.9 3.0
20/05:55am 19.0 18.7 17.3 90 1.0 SSE 15 20 8 11 1003.8 1003.8 3.0
20/05:30am 19.1 18.8 17.4 90 1.0 SSE 15 19 8 10 1003.6 1003.6 3.0
20/05:00am 19.1 18.4 17.4 90 1.0 SSE 17 20 9 11 1003.5 1003.5 3.0
20/04:54am 19.1 18.4 17.4 90 1.0 SSE 17 24 9 13 1003.5 1003.5 3.0
20/04:44am 19.1 18.3 17.2 89 1.2 SSE 17 24 9 13 1003.5 1003.5 3.0
20/04:34am 19.1 18.7 17.2 89 1.2 SSE 15 22 8 12 1003.5 1003.5 3.0
20/04:30am 19.2 18.9 17.3 89 1.2 SSE 15 22 8 12 1003.5 1003.5 3.0
20/04:21am 19.2 18.9 17.3 89 1.2 SSE 15 22 8 12 1003.6 1003.6 3.0
20/04:00am 19.3 19.4 17.4 89 1.2 SE 13 19 7 10 1003.8 1003.8 3.0
20/03:30am 19.3 19.0 17.4 89 1.2 SSE 15 20 8 11 1004.0 1004.0 3.0
20/03:00am 19.3 18.9 17.1 87 1.3 SSE 15 20 8 11 1004.2 1004.2 3.0
20/02:56am 19.4 19.4 17.2 87 1.3 SSE 13 19 7 10 1004.3 1004.3 3.0
20/02:30am 19.3 19.4 17.4 89 1.2 SSE 13 17 7 9 1004.3 1004.3 3.0
20/02:00am 19.1 19.1 17.1 88 1.2 SSE 13 19 7 10 1004.5 1004.5 3.0
20/01:30am 19.1 18.8 16.5 85 1.6 SSE 13 17 7 9 1004.5 1004.5 3.0
20/01:00am 19.1 18.8 15.4 79 2.2 SE 11 17 6 9 1004.9 1004.9 3.0
20/12:30am 19.2 18.7 14.9 76 2.5 SSE 11 15 6 8 1004.8 1004.8 3.0
20/12:00am 19.3 19.5 14.8 75 2.6 SSW 7 11 4 6 1004.7 1004.7 3.0
 
Date/Time
EDT
Temp
°C
App
Temp
°C
Dew
Point
°C
Rel
Hum
%
Delta-T
°C
Wind Press
QNH
hPa
Press
MSL
hPa
Rain since
9am
mm
Dir  Spd
km/h
Gust
km/h
Spd
kts
Gust
kts
19/11:30pm 19.8 18.7 15.4 76 2.6 S 15 20 8 11 1004.4 1004.4 3.0
19/11:00pm 20.3 19.6 16.5 79 2.3 S 15 20 8 11 1004.6 1004.6 3.0
19/10:30pm 20.3 18.8 15.3 73 3.0 SSW 17 20 9 11 1004.3 1004.3 3.0
19/10:00pm 19.9 19.4 14.9 73 2.9 SW 11 15 6 8 1004.3 1004.3 3.0
19/09:30pm 20.4 20.3 15.0 71 3.2 S 9 13 5 7 1004.1 1004.1 3.0
19/09:00pm 20.5 20.8 14.4 68 3.6 NNE 6 9 3 5 1004.1 1004.1 3.0
19/08:30pm 20.7 16.5 14.6 68 3.6 ENE 30 41 16 22 1003.5 1003.5 3.0
19/08:00pm 20.2 19.0 16.2 78 2.4 NE 17 24 9 13 1004.2 1004.2 3.0
19/07:30pm 21.2 20.0 16.2 73 3.0 NNE 17 30 9 16 1004.5 1004.5 2.8
19/07:00pm 22.8 20.8 14.9 61 4.7 NNE 19 32 10 17 1003.8 1003.8 2.8

Latest Capital City Observations: Canberra | Sydney | Melbourne | Brisbane | Adelaide | Perth | Hobart | Darwin

Other formats

Comma delimited format used in spreadsheet applications
http://www.bom.gov.au/fwo/IDV60901/IDV60901.94870.axf

JavaScript Object Notation format (JSON) in row-major order
http://www.bom.gov.au/fwo/IDV60901/IDV60901.94870.json

Data quality

Most of these data are generated automatically and are frequently updated. Quality checks on data are not normally performed. It is possible for incorrect values to appear. Refer to information at About Latest Weather Observations and please check the disclaimer before using these data.